Time;durP1;ratioP1;P1;durP2;ratioP2;P2;SDS_P1;SDS_P2;PMS_P1;PMS_P2;Temp;Humidity;BMP_temperature;BMP_pressure;BME280_temperature;BME280_humidity;BME280_pressure;Samples;Min_cycle;Max_cycle;Signal;HPM_P1;HPM_P2
2021/01/26 00:01:23;;;;;;;0.32;0.32;;;-1.30;99.90;;;;;;5070453;28;20230;-68
2021/01/26 00:03:49;;;;;;;0.20;0.20;;;-1.30;99.90;;;;;;5088429;28;20172;-69
2021/01/26 00:06:15;;;;;;;0.15;0.15;;;-1.30;99.90;;;;;;5077194;28;20177;-68
2021/01/26 00:08:41;;;;;;;0.20;0.20;;;-1.30;99.90;;;;;;5075060;28;20199;-68
2021/01/26 00:11:07;;;;;;;0.20;0.20;;;-1.30;99.90;;;;;;5088050;28;20215;-68
2021/01/26 00:13:33;;;;;;;1.05;1.05;;;-1.20;99.90;;;;;;5069062;28;20164;-68
2021/01/26 00:16:00;;;;;;;0.20;0.20;;;-1.20;99.90;;;;;;5069265;28;20160;-68
2021/01/26 00:18:26;;;;;;;0.10;0.10;;;-1.10;99.90;;;;;;5068108;28;20200;-68
2021/01/26 00:20:52;;;;;;;0.13;0.13;;;-1.10;99.90;;;;;;5067961;28;20743;-68
2021/01/26 00:23:18;;;;;;;0.30;0.30;;;-1.20;99.90;;;;;;5067846;28;20196;-68
2021/01/26 00:25:44;;;;;;;0.20;0.20;;;-1.20;99.90;;;;;;5068625;28;20168;-69
2021/01/26 00:28:13;;;;;;;0.50;0.50;;;-1.20;99.90;;;;;;5069289;28;20193;-68
2021/01/26 00:30:40;;;;;;;0.28;0.28;;;-1.10;99.90;;;;;;5068924;28;20187;-69
2021/01/26 00:33:11;;;;;;;1.23;1.13;;;-1.20;99.90;;;;;;5067849;28;20160;-68
2021/01/26 00:35:38;;;;;;;0.38;0.38;;;-1.20;99.90;;;;;;5069099;28;20536;-68
2021/01/26 00:38:05;;;;;;;0.20;0.20;;;-1.20;99.90;;;;;;5067854;28;20262;-68
2021/01/26 00:40:31;;;;;;;0.10;0.10;;;-1.30;99.90;;;;;;5068845;28;20157;-68
2021/01/26 00:42:58;;;;;;;0.13;0.13;;;-1.20;99.90;;;;;;5068954;28;20161;-69
2021/01/26 00:45:26;;;;;;;0.20;0.20;;;-1.20;99.90;;;;;;5068937;28;20156;-68
2021/01/26 00:47:52;;;;;;;0.20;0.20;;;-1.20;99.90;;;;;;5067342;28;20197;-68
2021/01/26 00:50:19;;;;;;;0.20;0.20;;;-1.20;99.90;;;;;;5069062;28;20161;-68
2021/01/26 00:52:45;;;;;;;0.10;0.10;;;-1.20;99.90;;;;;;5068567;28;20165;-68
2021/01/26 00:55:12;;;;;;;0.10;0.10;;;-1.10;99.90;;;;;;5069707;28;20157;-68
2021/01/26 00:57:41;;;;;;;0.10;0.10;;;-1.10;99.90;;;;;;5069080;28;20165;-68
2021/01/26 01:00:16;;;;;;;0.10;0.10;;;-1.20;99.90;;;;;;5067083;28;20557;-69
2021/01/26 01:02:42;;;;;;;0.20;0.20;;;-1.20;99.90;;;;;;5080195;28;20183;-68
2021/01/26 01:05:08;;;;;;;0.95;0.95;;;-1.20;99.90;;;;;;5088518;28;20223;-69
2021/01/26 01:07:35;;;;;;;0.10;0.10;;;-1.30;99.90;;;;;;5087020;28;20196;-69
2021/01/26 01:10:00;;;;;;;0.20;0.20;;;-1.30;99.90;;;;;;5070703;28;20184;-69
2021/01/26 01:12:26;;;;;;;0.10;0.10;;;-1.30;99.90;;;;;;5068512;28;20164;-70
2021/01/26 01:14:52;;;;;;;0.20;0.20;;;-1.30;99.90;;;;;;5068551;28;20230;-70
2021/01/26 01:17:18;;;;;;;0.17;0.17;;;-1.30;99.90;;;;;;5067307;28;20161;-70
2021/01/26 01:19:44;;;;;;;0.20;0.20;;;-1.30;99.90;;;;;;5066903;28;20200;-70
2021/01/26 01:22:10;;;;;;;0.95;0.95;;;-1.40;99.90;;;;;;5068161;28;20219;-70
2021/01/26 01:24:36;;;;;;;0.15;0.15;;;-1.30;99.90;;;;;;5067007;28;20195;-70
2021/01/26 01:27:02;;;;;;;0.10;0.10;;;-1.30;99.90;;;;;;5068345;28;20180;-70
2021/01/26 01:29:31;;;;;;;0.10;0.10;;;-1.40;99.90;;;;;;5067007;28;20200;-70
2021/01/26 01:31:58;;;;;;;0.22;0.22;;;-1.40;99.90;;;;;;5066705;28;20165;-71
2021/01/26 01:34:24;;;;;;;0.47;0.47;;;-1.30;99.90;;;;;;5067317;28;20229;-70
2021/01/26 01:36:50;;;;;;;0.85;0.85;;;-1.30;99.90;;;;;;5066807;28;20164;-70
2021/01/26 01:39:15;;;;;;;0.20;0.20;;;-1.40;99.90;;;;;;5066769;28;20200;-70
2021/01/26 01:41:41;;;;;;;0.15;0.15;;;-1.50;99.90;;;;;;5066378;28;20229;-70
2021/01/26 01:44:07;;;;;;;0.15;0.15;;;-1.50;99.90;;;;;;5067439;28;20160;-70
2021/01/26 01:46:43;;;;;;;0.35;0.35;;;-1.50;99.90;;;;;;5066480;28;20239;-70
2021/01/26 01:49:12;;;;;;;0.10;0.10;;;-1.60;99.90;;;;;;5068064;28;20555;-70
2021/01/26 01:51:41;;;;;;;0.20;0.20;;;-1.60;99.90;;;;;;5066660;28;20178;-70
2021/01/26 01:54:12;;;;;;;0.20;0.20;;;-1.70;99.90;;;;;;5067964;28;20164;-70
2021/01/26 01:56:48;;;;;;;0.20;0.20;;;-1.90;99.90;;;;;;5067970;28;20188;-70
2021/01/26 01:59:22;;;;;;;0.10;0.10;;;-1.80;99.90;;;;;;5071224;28;20191;-70
2021/01/26 02:01:49;;;;;;;0.32;0.32;;;-1.90;99.90;;;;;;5087909;28;20187;-70
2021/01/26 02:04:19;;;;;;;0.20;0.20;;;-1.90;99.90;;;;;;5086628;28;20191;-70
2021/01/26 02:06:51;;;;;;;0.63;0.63;;;-2.10;99.90;;;;;;5087794;28;20180;-70
2021/01/26 02:09:27;;;;;;;0.10;0.10;;;-2.10;99.90;;;;;;5086367;28;20257;-70
2021/01/26 02:11:53;;;;;;;0.20;0.20;;;-2.10;99.90;;;;;;5084467;28;20175;-69
2021/01/26 02:14:19;;;;;;;0.20;0.20;;;-2.30;99.90;;;;;;5086727;28;20160;-69
2021/01/26 02:16:45;;;;;;;0.20;0.20;;;-2.30;99.90;;;;;;5087330;28;20256;-69
2021/01/26 02:19:32;;;;;;;0.20;0.20;;;-2.20;99.90;;;;;;5086349;28;20203;-69
2021/01/26 02:22:26;;;;;;;0.35;0.35;;;-2.40;99.90;;;;;;5087668;28;20714;-69
2021/01/26 02:25:39;;;;;;;0.20;0.20;;;-2.50;99.90;;;;;;5087940;28;20163;-69
2021/01/26 02:28:24;;;;;;;0.10;0.10;;;-2.50;99.90;;;;;;5085265;28;20230;-70
2021/01/26 02:31:07;;;;;;;0.20;0.20;;;-2.60;99.90;;;;;;5083553;28;20215;-69
2021/01/26 02:33:59;;;;;;;0.38;0.38;;;-2.60;99.90;;;;;;5087573;28;20196;-70
2021/01/26 02:36:34;;;;;;;0.10;0.10;;;-2.50;99.90;;;;;;5086395;28;20187;-70
2021/01/26 02:39:37;;;;;;;0.25;0.25;;;-2.50;99.90;;;;;;5087823;28;20691;-69
2021/01/26 02:42:30;;;;;;;1.08;1.08;;;-2.60;99.90;;;;;;5085823;28;20261;-70
2021/01/26 02:45:21;;;;;;;2.45;1.95;;;-2.70;99.90;;;;;;5086309;28;20188;-70
2021/01/26 02:47:59;;;;;;;0.20;0.20;;;-2.80;99.90;;;;;;5087755;28;20179;-70
2021/01/26 02:50:28;;;;;;;0.10;0.10;;;-2.80;99.90;;;;;;5091329;28;20564;-69
2021/01/26 02:53:05;;;;;;;0.20;0.20;;;-2.80;99.90;;;;;;5091217;28;20157;-69
2021/01/26 02:55:56;;;;;;;0.15;0.15;;;-2.90;99.90;;;;;;5091121;28;20152;-70
2021/01/26 02:58:37;;;;;;;0.52;0.52;;;-3.00;99.90;;;;;;5090998;28;20179;-69
2021/01/26 03:01:05;;;;;;;0.95;0.95;;;-2.90;99.90;;;;;;5089803;28;20214;-70
2021/01/26 03:03:46;;;;;;;0.10;0.10;;;-3.00;99.90;;;;;;5091080;28;20536;-70
2021/01/26 03:06:27;;;;;;;0.20;0.20;;;-3.00;99.90;;;;;;5090987;28;20171;-70
2021/01/26 03:09:16;;;;;;;0.20;0.20;;;-2.90;99.90;;;;;;5090636;28;20163;-70
2021/01/26 03:11:44;;;;;;;0.20;0.20;;;-2.80;99.90;;;;;;5090656;28;20191;-70
2021/01/26 03:14:19;;;;;;;0.20;0.20;;;-3.00;99.90;;;;;;5090527;28;20168;-70
2021/01/26 03:16:53;;;;;;;0.60;0.60;;;-2.90;99.90;;;;;;5090834;28;20176;-70
2021/01/26 03:19:25;;;;;;;0.20;0.20;;;-2.90;99.90;;;;;;5090795;28;20198;-70
2021/01/26 03:21:57;;;;;;;0.15;0.15;;;-2.90;99.90;;;;;;5089703;28;20184;-70
2021/01/26 03:24:30;;;;;;;0.30;0.30;;;-2.90;99.90;;;;;;5089396;28;20171;-70
2021/01/26 03:26:57;;;;;;;0.20;0.20;;;-3.00;99.90;;;;;;5089347;28;20202;-69
2021/01/26 03:29:30;;;;;;;0.20;0.20;;;-3.00;99.90;;;;;;5090684;28;20160;-70
2021/01/26 03:32:00;;;;;;;0.20;0.20;;;-3.10;99.90;;;;;;5090396;28;20167;-69
2021/01/26 03:34:26;;;;;;;0.20;0.20;;;-3.30;99.90;;;;;;5090267;28;20172;-70
2021/01/26 03:36:52;;;;;;;1.52;1.45;;;-3.20;99.90;;;;;;5088812;28;20190;-70
2021/01/26 03:39:20;;;;;;;1.40;1.30;;;-3.10;99.90;;;;;;5089217;28;20259;-70
2021/01/26 03:41:47;;;;;;;0.20;0.20;;;-3.10;99.90;;;;;;5090078;28;20219;-70
2021/01/26 03:44:14;;;;;;;0.10;0.10;;;-3.10;99.90;;;;;;5089934;28;20156;-70
2021/01/26 03:46:50;;;;;;;0.30;0.30;;;-3.00;99.90;;;;;;5088549;28;20168;-70
2021/01/26 03:49:47;;;;;;;0.20;0.20;;;-2.90;99.90;;;;;;5088526;28;20202;-69
2021/01/26 03:52:27;;;;;;;0.17;0.17;;;-3.00;99.90;;;;;;5089967;28;20171;-70
2021/01/26 03:54:53;;;;;;;0.10;0.10;;;-3.00;99.90;;;;;;5089183;28;20160;-70
2021/01/26 03:57:29;;;;;;;1.65;0.93;;;-2.90;99.90;;;;;;5089144;28;20660;-69
2021/01/26 04:00:04;;;;;;;0.10;0.10;;;-2.90;99.90;;;;;;5089501;28;20289;-70
2021/01/26 04:02:41;;;;;;;0.20;0.20;;;-3.10;99.90;;;;;;5089541;28;20198;-69
2021/01/26 04:05:25;;;;;;;1.63;0.85;;;-3.40;99.90;;;;;;5089546;28;20159;-69
2021/01/26 04:08:04;;;;;;;0.20;0.20;;;-3.50;99.90;;;;;;5087955;28;20203;-69
2021/01/26 04:10:37;;;;;;;0.10;0.10;;;-3.40;99.90;;;;;;5089421;28;20153;-69
2021/01/26 04:13:07;;;;;;;0.20;0.20;;;-3.30;99.90;;;;;;5088199;28;20203;-69
2021/01/26 04:15:47;;;;;;;0.10;0.10;;;-3.20;99.90;;;;;;5089582;28;20152;-69
2021/01/26 04:18:15;;;;;;;0.25;0.25;;;-3.10;99.90;;;;;;5089122;28;20203;-69
2021/01/26 04:20:41;;;;;;;0.73;0.73;;;-3.30;99.90;;;;;;5088881;28;20152;-69
2021/01/26 04:23:09;;;;;;;0.10;0.10;;;-3.50;99.90;;;;;;5088081;28;20164;-69
2021/01/26 04:25:37;;;;;;;0.20;0.20;;;-3.40;99.90;;;;;;5089449;28;20168;-70
2021/01/26 04:28:10;;;;;;;0.10;0.10;;;-3.10;99.90;;;;;;5089281;28;20191;-70
2021/01/26 04:30:37;;;;;;;0.20;0.20;;;-3.20;99.90;;;;;;5089158;28;20323;-69
2021/01/26 04:33:15;;;;;;;0.52;0.52;;;-3.30;99.90;;;;;;5089177;28;20152;-70
2021/01/26 04:35:42;;;;;;;0.20;0.20;;;-3.20;99.90;;;;;;5089024;28;20527;-69
2021/01/26 04:38:09;;;;;;;0.25;0.25;;;-3.20;99.90;;;;;;5089039;28;20183;-70
2021/01/26 04:40:36;;;;;;;0.20;0.20;;;-3.30;99.90;;;;;;5087259;28;20201;-69
2021/01/26 04:43:07;;;;;;;1.00;0.85;;;-3.30;99.90;;;;;;5089064;28;20172;-69
2021/01/26 04:46:16;;;;;;;0.77;0.77;;;-3.40;99.90;;;;;;5088936;28;20247;-69
2021/01/26 04:49:00;;;;;;;0.20;0.20;;;-3.40;99.90;;;;;;5088767;28;20245;-70
2021/01/26 04:51:35;;;;;;;0.20;0.20;;;-3.40;99.90;;;;;;5087501;28;20195;-70
2021/01/26 04:54:22;;;;;;;0.20;0.20;;;-3.40;99.90;;;;;;5088876;28;20159;-69
2021/01/26 04:57:03;;;;;;;0.20;0.20;;;-3.30;99.90;;;;;;5088615;28;20163;-69
2021/01/26 04:59:57;;;;;;;0.20;0.20;;;-3.10;99.90;;;;;;5088739;28;20195;-70
2021/01/26 05:02:58;;;;;;;0.13;0.13;;;-3.00;99.90;;;;;;5088592;28;20203;-69
2021/01/26 05:05:26;;;;;;;0.10;0.10;;;-3.20;99.90;;;;;;5087360;28;20192;-69
2021/01/26 05:07:59;;;;;;;0.40;0.40;;;-3.10;99.90;;;;;;5088719;28;20187;-69
2021/01/26 05:10:39;;;;;;;1.77;1.30;;;-3.00;99.90;;;;;;5088301;28;20153;-69
2021/01/26 05:13:22;;;;;;;0.47;0.47;;;-3.10;99.90;;;;;;5088306;28;20247;-70
2021/01/26 05:15:59;;;;;;;0.75;0.75;;;-3.00;99.90;;;;;;5088498;28;20152;-69
2021/01/26 05:18:35;;;;;;;0.85;0.85;;;-2.80;99.90;;;;;;5086664;28;20192;-69
2021/01/26 05:21:11;;;;;;;0.20;0.20;;;-2.90;99.90;;;;;;5088099;28;20175;-68
2021/01/26 05:23:41;;;;;;;0.20;0.20;;;-2.80;99.90;;;;;;5088234;28;20179;-69
2021/01/26 05:26:08;;;;;;;0.10;0.10;;;-2.60;99.90;;;;;;5088254;28;20160;-69
2021/01/26 05:28:37;;;;;;;0.13;0.13;;;-2.60;99.90;;;;;;5088140;28;20230;-69
2021/01/26 05:31:12;;;;;;;0.30;0.30;;;-2.60;99.90;;;;;;5087577;28;20549;-68
2021/01/26 05:33:42;;;;;;;0.77;0.77;;;-2.60;99.90;;;;;;5088249;28;20176;-69
2021/01/26 05:36:08;;;;;;;0.10;0.10;;;-2.60;99.90;;;;;;5088021;28;20159;-68
2021/01/26 05:38:33;;;;;;;0.10;0.10;;;-2.60;99.90;;;;;;5086747;28;20214;-70
2021/01/26 05:41:05;;;;;;;0.10;0.10;;;-2.60;99.90;;;;;;5087841;28;20219;-70
2021/01/26 05:43:33;;;;;;;0.20;0.20;;;-2.60;99.90;;;;;;5087904;28;20179;-70
2021/01/26 05:46:01;;;;;;;0.15;0.15;;;-2.60;99.90;;;;;;5087923;28;20156;-70
2021/01/26 05:48:44;;;;;;;0.20;0.20;;;-2.60;99.90;;;;;;5087633;28;20225;-69
2021/01/26 05:51:26;;;;;;;0.20;0.20;;;-2.50;99.90;;;;;;5087950;28;20209;-69
2021/01/26 05:54:05;;;;;;;0.10;0.10;;;-2.60;99.90;;;;;;5087896;28;20225;-69
2021/01/26 05:56:33;;;;;;;0.20;0.20;;;-2.60;99.90;;;;;;5086442;28;20167;-69
2021/01/26 05:59:24;;;;;;;0.13;0.13;;;-2.50;99.90;;;;;;5087684;28;20198;-69
2021/01/26 06:01:51;;;;;;;0.10;0.10;;;-2.30;99.90;;;;;;5086211;28;20202;-70
2021/01/26 06:04:18;;;;;;;0.20;0.20;;;-2.30;99.90;;;;;;5086465;28;20232;-70
2021/01/26 06:06:52;;;;;;;2.05;1.83;;;-2.30;99.90;;;;;;5087824;28;20220;-69
2021/01/26 06:09:40;;;;;;;0.17;0.17;;;-2.30;99.90;;;;;;5087493;28;20211;-69
2021/01/26 06:12:26;;;;;;;0.30;0.30;;;-2.10;99.90;;;;;;5087544;28;20178;-69
2021/01/26 06:14:55;;;;;;;0.10;0.10;;;-2.00;99.90;;;;;;5087746;28;20188;-69
2021/01/26 06:17:27;;;;;;;0.10;0.10;;;-2.10;99.90;;;;;;5087652;28;20195;-69
2021/01/26 06:20:22;;;;;;;0.10;0.10;;;-2.00;99.90;;;;;;5087521;28;20164;-69
2021/01/26 06:22:50;;;;;;;0.10;0.10;;;-2.00;99.90;;;;;;5087727;28;20196;-69
2021/01/26 06:25:27;;;;;;;0.20;0.20;;;-1.90;99.90;;;;;;5091318;28;20156;-69
2021/01/26 06:28:30;;;;;;;0.20;0.20;;;-1.90;99.90;;;;;;5090147;28;20191;-69
2021/01/26 06:31:19;;;;;;;0.90;0.90;;;-2.10;99.90;;;;;;5090490;28;20179;-70
2021/01/26 06:34:04;;;;;;;0.17;0.17;;;-2.30;99.90;;;;;;5090394;28;20196;-69
2021/01/26 06:36:47;;;;;;;0.60;0.60;;;-2.30;99.90;;;;;;5091598;28;20218;-68
2021/01/26 06:39:41;;;;;;;0.13;0.13;;;-2.10;99.90;;;;;;5089878;28;20249;-70
2021/01/26 06:42:27;;;;;;;0.20;0.20;;;-1.90;99.90;;;;;;5089808;28;20227;-70
2021/01/26 06:45:18;;;;;;;0.47;0.47;;;-1.90;99.90;;;;;;5086060;28;20210;-69
2021/01/26 06:47:44;;;;;;;0.20;0.20;;;-2.00;99.90;;;;;;5091321;28;20196;-70
2021/01/26 06:50:28;;;;;;;0.25;0.25;;;-1.90;99.90;;;;;;5091566;28;20160;-70
2021/01/26 06:53:11;;;;;;;0.20;0.20;;;-1.80;99.90;;;;;;5091380;28;20171;-69
2021/01/26 06:56:06;;;;;;;0.20;0.20;;;-1.70;99.90;;;;;;5091233;28;20186;-70
2021/01/26 06:58:56;;;;;;;1.38;1.38;;;-1.60;99.90;;;;;;5091090;28;20282;-69
2021/01/26 07:01:37;;;;;;;0.10;0.10;;;-1.70;99.90;;;;;;5089559;28;20661;-69
2021/01/26 07:04:29;;;;;;;0.82;0.73;;;-1.80;99.90;;;;;;5091062;28;20173;-69
2021/01/26 07:07:23;;;;;;;0.17;0.17;;;-1.70;99.90;;;;;;5091142;28;20207;-69
2021/01/26 07:10:07;;;;;;;0.10;0.10;;;-1.70;99.90;;;;;;5090877;28;20161;-69
2021/01/26 07:12:39;;;;;;;0.10;0.10;;;-1.60;99.90;;;;;;5091003;28;20521;-70
2021/01/26 07:15:16;;;;;;;0.28;0.28;;;-1.60;99.90;;;;;;5090573;28;20171;-69
2021/01/26 07:17:54;;;;;;;0.10;0.10;;;-1.40;99.90;;;;;;5090873;28;20195;-69
2021/01/26 07:20:38;;;;;;;0.50;0.50;;;-1.30;99.90;;;;;;5089137;28;20239;-69
2021/01/26 07:23:39;;;;;;;0.20;0.20;;;-1.20;99.90;;;;;;5089530;28;20188;-69
2021/01/26 07:26:14;;;;;;;0.10;0.10;;;-1.20;99.90;;;;;;5090564;28;20205;-69
2021/01/26 07:29:06;;;;;;;0.10;0.10;;;-1.30;99.90;;;;;;5089886;28;20248;-69
2021/01/26 07:31:55;;;;;;;0.55;0.55;;;-1.40;99.90;;;;;;5090265;28;20168;-69
2021/01/26 07:34:42;;;;;;;0.22;0.22;;;-1.30;99.90;;;;;;5097536;28;20737;-69
2021/01/26 07:37:34;;;;;;;0.10;0.10;;;-1.10;99.90;;;;;;5090287;28;20223;-69
2021/01/26 07:40:20;;;;;;;0.20;0.20;;;-1.10;99.90;;;;;;5089259;28;20212;-68
2021/01/26 07:43:33;;;;;;;0.20;0.20;;;-0.90;99.90;;;;;;5089690;28;20239;-68
2021/01/26 07:46:04;;;;;;;0.40;0.40;;;-0.80;99.90;;;;;;5088217;28;20175;-68
2021/01/26 07:48:53;;;;;;;0.17;0.17;;;-0.60;99.90;;;;;;5088223;28;20195;-68
2021/01/26 07:51:27;;;;;;;0.30;0.30;;;-0.70;99.90;;;;;;5078341;28;20663;-68
2021/01/26 07:54:47;;;;;;;0.10;0.10;;;-0.70;99.90;;;;;;5090092;28;20163;-69
2021/01/26 07:57:15;;;;;;;0.20;0.20;;;-0.50;99.90;;;;;;5094036;28;20656;-68
2021/01/26 07:59:49;;;;;;;0.20;0.20;;;-0.40;99.90;;;;;;5086783;28;20206;-68
2021/01/26 08:02:34;;;;;;;0.13;0.13;;;-0.50;99.90;;;;;;5072934;28;20207;-69
2021/01/26 08:05:08;;;;;;;0.22;0.22;;;-0.50;99.90;;;;;;5086939;28;20210;-69
2021/01/26 08:07:34;;;;;;;0.10;0.10;;;-0.50;99.90;;;;;;5069797;28;20160;-69
2021/01/26 08:10:02;;;;;;;0.45;0.45;;;-0.40;99.90;;;;;;5070067;28;20678;-69
2021/01/26 08:12:30;;;;;;;0.38;0.38;;;-0.30;99.90;;;;;;5086878;28;20751;-69
2021/01/26 08:15:41;;;;;;;0.20;0.20;;;-0.10;99.90;;;;;;5086695;28;20160;-69
2021/01/26 08:18:31;;;;;;;0.10;0.10;;;-0.20;99.90;;;;;;5082788;28;20212;-69
2021/01/26 08:20:57;;;;;;;0.35;0.35;;;-0.10;99.90;;;;;;5069524;28;20202;-69
2021/01/26 08:23:29;;;;;;;0.20;0.20;;;0.00;99.90;;;;;;5069807;28;20168;-69
2021/01/26 08:25:56;;;;;;;0.10;0.10;;;0.00;99.90;;;;;;5086812;28;20184;-69
2021/01/26 08:28:40;;;;;;;0.25;0.25;;;0.30;99.90;;;;;;5086684;28;20156;-69
2021/01/26 08:31:27;;;;;;;0.22;0.22;;;0.40;99.90;;;;;;5086484;28;20231;-69
2021/01/26 08:33:55;;;;;;;0.20;0.20;;;2.10;99.90;;;;;;5087159;28;20176;-69
2021/01/26 08:36:29;;;;;;;0.10;0.10;;;3.80;99.90;;;;;;5086535;28;20208;-69
2021/01/26 08:38:57;;;;;;;0.10;0.10;;;4.80;99.90;;;;;;5083921;28;20188;-69
2021/01/26 08:41:45;;;;;;;0.20;0.20;;;5.60;99.90;;;;;;5079429;28;20224;-69
2021/01/26 08:44:34;;;;;;;0.20;0.20;;;5.90;99.90;;;;;;5079092;28;20176;-69
2021/01/26 08:46:59;;;;;;;0.30;0.30;;;6.00;99.90;;;;;;5081359;28;20279;-69
2021/01/26 08:49:34;;;;;;;0.28;0.28;;;5.80;99.90;;;;;;5068134;28;20161;-70
2021/01/26 08:52:21;;;;;;;0.10;0.10;;;6.00;99.90;;;;;;5068402;28;20177;-70
2021/01/26 08:54:49;;;;;;;0.20;0.20;;;5.80;99.90;;;;;;5066778;28;20168;-69
2021/01/26 08:57:27;;;;;;;0.30;0.30;;;6.30;99.90;;;;;;5083076;28;20203;-70
2021/01/26 08:59:55;;;;;;;0.10;0.10;;;8.10;99.90;;;;;;5088687;28;20160;-71
2021/01/26 09:02:34;;;;;;;0.10;0.10;;;8.70;99.90;;;;;;5082885;28;20204;-71
2021/01/26 09:05:01;;;;;;;0.85;0.85;;;11.20;99.90;;;;;;5075827;28;20203;-71
2021/01/26 09:07:56;;;;;;;0.08;0.08;;;12.60;99.90;;;;;;5077044;28;20202;-70
2021/01/26 09:10:46;;;;;;;0.17;0.17;;;14.50;99.90;;;;;;5081096;28;20175;-69
2021/01/26 09:13:33;;;;;;;0.25;0.25;;;15.40;99.90;;;;;;5076357;28;20172;-70
2021/01/26 09:16:12;;;;;;;1.02;1.00;;;16.10;99.90;;;;;;5068277;28;20160;-70
2021/01/26 09:18:39;;;;;;;0.20;0.20;;;14.00;99.90;;;;;;5068354;28;20188;-68
2021/01/26 09:21:11;;;;;;;2.15;1.50;;;12.20;99.90;;;;;;5077315;28;20305;-68
2021/01/26 09:23:41;;;;;;;27.95;0.75;;;12.30;99.90;;;;;;5088199;28;20160;-69
2021/01/26 09:26:12;;;;;;;0.77;0.77;;;12.40;99.90;;;;;;5088028;28;20207;-74
2021/01/26 09:28:43;;;;;;;0.10;0.10;;;13.30;99.90;;;;;;5087940;28;20156;-74
2021/01/26 09:31:13;;;;;;;0.35;0.28;;;14.10;99.90;;;;;;5088104;28;20522;-74
2021/01/26 09:33:39;;;;;;;0.90;0.55;;;14.40;99.90;;;;;;5087861;28;20170;-74
2021/01/26 09:36:15;;;;;;;0.70;0.70;;;15.00;99.90;;;;;;5075776;28;20180;-74
2021/01/26 09:38:45;;;;;;;0.80;0.80;;;15.40;99.90;;;;;;5080708;28;20505;-73
2021/01/26 09:41:37;;;;;;;0.85;0.65;;;15.50;99.90;;;;;;5086439;28;20223;-74
2021/01/26 09:44:07;;;;;;;0.43;0.43;;;15.50;99.90;;;;;;5084988;28;20747;-73
2021/01/26 09:46:42;;;;;;;0.30;0.30;;;15.10;99.90;;;;;;5086301;28;20195;-74
2021/01/26 09:49:17;;;;;;;0.13;0.13;;;14.10;99.90;;;;;;5088039;28;20147;-74
2021/01/26 09:51:46;;;;;;;3.10;1.17;;;11.90;99.90;;;;;;5088253;28;20215;-74
2021/01/26 09:54:27;;;;;;;0.43;0.40;;;12.30;99.90;;;;;;5087040;28;20171;-75
2021/01/26 09:56:55;;;;;;;0.50;0.50;;;12.80;99.90;;;;;;5083637;28;20211;-74
2021/01/26 09:59:21;;;;;;;0.20;0.20;;;12.20;99.90;;;;;;5093053;28;20641;-73
2021/01/26 10:01:48;;;;;;;1.70;1.58;;;11.00;99.90;;;;;;5091453;28;20218;-75
2021/01/26 10:04:16;;;;;;;1.60;1.05;;;10.20;99.90;;;;;;5090417;28;20160;-75
2021/01/26 10:06:42;;;;;;;4.32;0.75;;;9.50;99.90;;;;;;5091333;28;20195;-76
2021/01/26 10:09:25;;;;;;;1.23;1.20;;;8.60;99.90;;;;;;5091047;28;20156;-75
2021/01/26 10:11:53;;;;;;;0.10;0.10;;;8.30;99.90;;;;;;5085898;28;20167;-73
2021/01/26 10:14:25;;;;;;;0.80;0.80;;;8.60;99.90;;;;;;5088071;28;20193;-74
2021/01/26 10:16:54;;;;;;;0.80;0.80;;;9.10;99.90;;;;;;5091675;28;20188;-74
2021/01/26 10:19:32;;;;;;;1.55;0.63;;;9.50;99.90;;;;;;5090212;28;20175;-74
2021/01/26 10:22:13;;;;;;;0.47;0.47;;;9.70;99.90;;;;;;5091300;28;20241;-74
2021/01/26 10:24:39;;;;;;;1.08;1.02;;;10.80;99.90;;;;;;5091606;28;20201;-76
2021/01/26 10:27:09;;;;;;;0.75;0.55;;;11.50;99.90;;;;;;5089439;28;20196;-74
2021/01/26 10:29:40;;;;;;;0.50;0.50;;;12.10;99.90;;;;;;5090425;28;20263;-74
2021/01/26 10:32:09;;;;;;;0.75;0.75;;;12.00;99.90;;;;;;5090913;28;20171;-69
2021/01/26 10:34:42;;;;;;;1.33;1.23;;;11.70;99.90;;;;;;5091607;28;20203;-68
2021/01/26 10:37:11;;;;;;;1.85;1.30;;;11.00;99.90;;;;;;5082320;28;20215;-67
2021/01/26 10:39:37;;;;;;;0.47;0.47;;;8.90;99.90;;;;;;5089040;28;20176;-68
2021/01/26 10:42:14;;;;;;;0.63;0.63;;;7.80;99.90;;;;;;5089342;28;20235;-69
2021/01/26 10:44:59;;;;;;;0.40;0.40;;;7.20;99.90;;;;;;5090551;28;20196;-68
2021/01/26 10:47:30;;;;;;;1.08;0.80;;;6.90;99.90;;;;;;5090109;28;20536;-68
2021/01/26 10:49:59;;;;;;;3.03;1.15;;;7.10;99.90;;;;;;5089992;28;20214;-68
2021/01/26 10:52:45;;;;;;;0.65;0.65;;;7.50;99.90;;;;;;5082928;28;20184;-67
2021/01/26 10:55:14;;;;;;;7.72;2.20;;;7.00;99.90;;;;;;5089548;28;20223;-69
2021/01/26 10:57:42;;;;;;;0.60;0.60;;;6.40;99.90;;;;;;5090882;28;20163;-69
2021/01/26 11:00:10;;;;;;;0.20;0.20;;;6.00;99.90;;;;;;5090485;28;20176;-69
2021/01/26 11:02:36;;;;;;;0.25;0.25;;;5.70;99.90;;;;;;5090613;28;20184;-69
2021/01/26 11:05:07;;;;;;;6.85;1.27;;;5.50;99.90;;;;;;5090502;28;20554;-69
2021/01/26 11:07:33;;;;;;;0.10;0.10;;;5.30;99.90;;;;;;5089111;28;20173;-69
2021/01/26 11:09:59;;;;;;;0.10;0.10;;;5.40;99.90;;;;;;5087551;28;20199;-68
2021/01/26 11:12:25;;;;;;;0.10;0.10;;;5.40;99.90;;;;;;5081907;28;20199;-68
2021/01/26 11:14:54;;;;;;;0.28;0.28;;;5.30;99.90;;;;;;5090142;28;20219;-69
2021/01/26 11:17:21;;;;;;;0.20;0.20;;;5.50;99.90;;;;;;5089994;28;20223;-69
2021/01/26 11:19:48;;;;;;;1.52;1.42;;;5.80;99.90;;;;;;5090511;28;20152;-68
2021/01/26 11:22:15;;;;;;;0.10;0.10;;;6.30;99.90;;;;;;5089983;28;20208;-68
2021/01/26 11:24:42;;;;;;;0.55;0.55;;;6.60;99.90;;;;;;5088843;28;20211;-69
2021/01/26 11:27:08;;;;;;;0.22;0.22;;;6.80;99.90;;;;;;5077397;28;20200;-68
2021/01/26 11:29:34;;;;;;;0.20;0.20;;;6.90;99.90;;;;;;5087885;28;20164;-68
2021/01/26 11:32:01;;;;;;;0.95;0.95;;;7.50;99.90;;;;;;5070356;28;20280;-69
2021/01/26 11:34:27;;;;;;;0.55;0.55;;;7.50;99.90;;;;;;5074841;28;20197;-69
2021/01/26 11:36:53;;;;;;;0.55;0.55;;;7.80;99.90;;;;;;5090398;28;20156;-69
2021/01/26 11:39:19;;;;;;;0.10;0.10;;;7.80;99.90;;;;;;5073880;28;20164;-69
2021/01/26 11:41:45;;;;;;;0.28;0.28;;;7.70;99.90;;;;;;5068552;28;20250;-68
2021/01/26 11:44:11;;;;;;;0.10;0.10;;;7.20;99.90;;;;;;5084423;28;20205;-69
2021/01/26 11:46:37;;;;;;;0.13;0.13;;;7.20;99.90;;;;;;5089963;28;20171;-69
2021/01/26 11:49:03;;;;;;;0.10;0.10;;;7.10;99.90;;;;;;5090090;28;20609;-68
2021/01/26 11:51:28;;;;;;;1.17;1.15;;;7.10;99.90;;;;;;5090078;28;20198;-68
2021/01/26 11:53:54;;;;;;;1.10;0.65;;;7.40;99.90;;;;;;5077273;28;20257;-69
2021/01/26 11:56:22;;;;;;;1.55;1.42;;;7.40;99.90;;;;;;5069557;28;20157;-69
2021/01/26 11:58:49;;;;;;;0.10;0.10;;;7.00;99.90;;;;;;5069832;28;20160;-68
2021/01/26 12:01:16;;;;;;;0.10;0.10;;;6.60;99.90;;;;;;5069556;28;20307;-69
2021/01/26 12:03:42;;;;;;;0.10;0.10;;;6.70;99.90;;;;;;5069339;28;20161;-70
2021/01/26 12:06:08;;;;;;;2.00;1.05;;;6.80;99.90;;;;;;5069203;28;20153;-69
2021/01/26 12:08:34;;;;;;;0.88;0.52;;;6.70;99.90;;;;;;5068123;28;20270;-69
2021/01/26 12:11:00;;;;;;;0.68;0.68;;;6.20;99.90;;;;;;5069129;28;20188;-69
2021/01/26 12:13:26;;;;;;;0.10;0.10;;;6.10;99.90;;;;;;5088744;28;20194;-69
2021/01/26 12:15:52;;;;;;;0.15;0.15;;;5.70;99.90;;;;;;5088634;28;20164;-69
2021/01/26 12:18:19;;;;;;;0.88;0.88;;;5.40;99.90;;;;;;5089498;28;20148;-69
2021/01/26 12:20:44;;;;;;;0.40;0.40;;;5.30;99.90;;;;;;5087334;28;20200;-69
2021/01/26 12:23:10;;;;;;;0.10;0.10;;;5.30;99.90;;;;;;5089250;28;20179;-69
2021/01/26 12:25:39;;;;;;;0.10;0.10;;;5.10;99.90;;;;;;5087801;28;20176;-69
2021/01/26 12:28:05;;;;;;;0.10;0.10;;;5.10;99.90;;;;;;5084677;28;20656;-69
2021/01/26 12:30:31;;;;;;;1.13;0.82;;;5.50;99.90;;;;;;5085219;28;20248;-70
2021/01/26 12:32:57;;;;;;;1.50;1.40;;;5.70;99.90;;;;;;5069021;28;20168;-70
2021/01/26 12:35:24;;;;;;;0.10;0.10;;;5.60;99.90;;;;;;5084656;28;20247;-71
2021/01/26 12:37:51;;;;;;;1.13;0.75;;;5.40;99.90;;;;;;5084626;28;20226;-69
2021/01/26 12:40:18;;;;;;;0.40;0.40;;;5.50;99.90;;;;;;5069253;28;20181;-69
2021/01/26 12:42:44;;;;;;;0.20;0.20;;;5.30;99.90;;;;;;5067289;28;20239;-70
2021/01/26 12:45:11;;;;;;;0.35;0.35;;;5.00;99.90;;;;;;5068650;28;20656;-67
2021/01/26 12:47:38;;;;;;;0.20;0.20;;;4.80;99.90;;;;;;5068393;28;20192;-68
2021/01/26 12:50:06;;;;;;;0.63;0.63;;;4.60;99.90;;;;;;5068403;28;20262;-70
2021/01/26 12:52:32;;;;;;;2.35;0.98;;;4.50;99.90;;;;;;5068458;28;20180;-70
2021/01/26 12:54:58;;;;;;;1.23;1.13;;;4.50;99.90;;;;;;5068401;28;20208;-70
2021/01/26 12:57:23;;;;;;;0.15;0.15;;;4.60;99.90;;;;;;5068712;28;20259;-69
2021/01/26 12:59:51;;;;;;;0.52;0.52;;;4.70;99.90;;;;;;5086099;28;20175;-69
2021/01/26 13:02:20;;;;;;;0.35;0.35;;;4.70;99.90;;;;;;5088436;28;20187;-69
2021/01/26 13:04:46;;;;;;;0.10;0.10;;;4.70;99.90;;;;;;5088358;28;20190;-68
2021/01/26 13:07:12;;;;;;;0.38;0.38;;;4.60;99.90;;;;;;5086803;28;20267;-69
2021/01/26 13:09:37;;;;;;;0.45;0.45;;;4.50;99.90;;;;;;5087998;28;20175;-68
2021/01/26 13:12:03;;;;;;;1.00;1.00;;;4.40;99.90;;;;;;5085516;28;20196;-73
2021/01/26 13:14:29;;;;;;;1.13;1.10;;;4.40;99.90;;;;;;5086638;28;20176;-69
2021/01/26 13:16:55;;;;;;;3.58;1.27;;;4.40;99.90;;;;;;5079179;28;20196;-69
2021/01/26 13:19:21;;;;;;;8.38;1.38;;;4.50;99.90;;;;;;5080595;28;20193;-67
2021/01/26 13:21:48;;;;;;;0.20;0.20;;;4.50;99.90;;;;;;5073358;28;20203;-68
2021/01/26 13:24:14;;;;;;;0.20;0.20;;;4.50;99.90;;;;;;5076009;28;20207;-68